Terminal Aerodrome Forecast
Issued by NWS

Home | Current Version | Previous Version | Text Only | Print | Product List | Glossary On
Versions: 1 2 3 4 5 6 7 8 9 10 11 12 13 14 15 16 17 18 19
000
FTUS43 KICT 301140
TAFSLN
TAF
KSLN 301140Z 3012/3112 34020G30KT P6SM -RA SCT008 OVC012
      TEMPO 3012/3016 6SM -RA OVC008
     FM301700 33016G25KT P6SM OVC015
     FM302300 35009KT P6SM OVC020=

USA.gov is the U.S. government's official web portal to all federal, state and local government web resources and services.